sensor_id;sensor_type;location;lat;lon;timestamp;P1;durP1;ratioP1;P2;durP2;ratioP2
45358;SDS011;31096;49.292;8.710;2023-04-06T00:04:02;9.20;;;5.07;;
45358;SDS011;31096;49.292;8.710;2023-04-06T00:08:53;8.45;;;5.05;;
45358;SDS011;31096;49.292;8.710;2023-04-06T00:13:44;11.30;;;5.53;;
45358;SDS011;31096;49.292;8.710;2023-04-06T00:18:35;9.93;;;5.70;;
45358;SDS011;31096;49.292;8.710;2023-04-06T00:23:25;8.87;;;5.17;;
45358;SDS011;31096;49.292;8.710;2023-04-06T00:28:16;10.18;;;5.55;;
45358;SDS011;31096;49.292;8.710;2023-04-06T00:33:07;8.73;;;5.00;;
45358;SDS011;31096;49.292;8.710;2023-04-06T00:37:58;12.57;;;6.00;;
45358;SDS011;31096;49.292;8.710;2023-04-06T00:42:49;9.02;;;5.13;;
45358;SDS011;31096;49.292;8.710;2023-04-06T00:47:40;8.63;;;5.10;;
45358;SDS011;31096;49.292;8.710;2023-04-06T00:52:31;8.27;;;4.70;;
45358;SDS011;31096;49.292;8.710;2023-04-06T00:57:21;9.32;;;4.78;;
45358;SDS011;31096;49.292;8.710;2023-04-06T01:02:12;9.97;;;5.20;;
45358;SDS011;31096;49.292;8.710;2023-04-06T01:07:03;7.97;;;4.93;;
45358;SDS011;31096;49.292;8.710;2023-04-06T01:11:54;8.57;;;5.40;;
45358;SDS011;31096;49.292;8.710;2023-04-06T01:16:46;10.43;;;5.13;;
45358;SDS011;31096;49.292;8.710;2023-04-06T01:21:37;10.23;;;5.35;;
45358;SDS011;31096;49.292;8.710;2023-04-06T01:26:28;9.57;;;4.83;;
45358;SDS011;31096;49.292;8.710;2023-04-06T01:31:19;8.48;;;4.60;;
45358;SDS011;31096;49.292;8.710;2023-04-06T01:36:10;8.70;;;5.10;;
45358;SDS011;31096;49.292;8.710;2023-04-06T01:41:01;8.88;;;5.13;;
45358;SDS011;31096;49.292;8.710;2023-04-06T01:45:51;8.30;;;4.57;;
45358;SDS011;31096;49.292;8.710;2023-04-06T01:50:42;7.70;;;4.53;;
45358;SDS011;31096;49.292;8.710;2023-04-06T01:55:33;8.25;;;4.70;;
45358;SDS011;31096;49.292;8.710;2023-04-06T02:00:23;9.03;;;4.87;;
45358;SDS011;31096;49.292;8.710;2023-04-06T02:05:14;8.43;;;4.43;;
45358;SDS011;31096;49.292;8.710;2023-04-06T02:10:10;7.17;;;4.30;;
45358;SDS011;31096;49.292;8.710;2023-04-06T02:15:04;9.68;;;4.60;;
45358;SDS011;31096;49.292;8.710;2023-04-06T02:19:55;8.63;;;4.23;;
45358;SDS011;31096;49.292;8.710;2023-04-06T02:24:46;7.72;;;4.78;;
45358;SDS011;31096;49.292;8.710;2023-04-06T02:29:37;7.43;;;4.37;;
45358;SDS011;31096;49.292;8.710;2023-04-06T02:34:28;10.83;;;5.53;;
45358;SDS011;31096;49.292;8.710;2023-04-06T02:39:19;8.48;;;4.30;;
45358;SDS011;31096;49.292;8.710;2023-04-06T02:44:10;8.57;;;4.40;;
45358;SDS011;31096;49.292;8.710;2023-04-06T02:49:01;8.32;;;4.53;;
45358;SDS011;31096;49.292;8.710;2023-04-06T02:53:52;9.27;;;4.37;;
45358;SDS011;31096;49.292;8.710;2023-04-06T02:58:43;7.50;;;4.40;;
45358;SDS011;31096;49.292;8.710;2023-04-06T03:03:33;9.50;;;4.97;;
45358;SDS011;31096;49.292;8.710;2023-04-06T03:08:24;10.40;;;4.90;;
45358;SDS011;31096;49.292;8.710;2023-04-06T03:13:15;7.80;;;4.60;;
45358;SDS011;31096;49.292;8.710;2023-04-06T03:18:06;11.80;;;4.67;;
45358;SDS011;31096;49.292;8.710;2023-04-06T03:22:56;8.52;;;4.32;;
45358;SDS011;31096;49.292;8.710;2023-04-06T03:27:47;7.03;;;4.10;;
45358;SDS011;31096;49.292;8.710;2023-04-06T03:32:38;8.55;;;4.03;;
45358;SDS011;31096;49.292;8.710;2023-04-06T03:37:29;7.40;;;4.53;;
45358;SDS011;31096;49.292;8.710;2023-04-06T03:42:20;7.67;;;4.63;;
45358;SDS011;31096;49.292;8.710;2023-04-06T03:47:10;7.90;;;4.20;;
45358;SDS011;31096;49.292;8.710;2023-04-06T03:52:01;7.43;;;4.33;;
45358;SDS011;31096;49.292;8.710;2023-04-06T03:56:52;7.30;;;4.00;;
45358;SDS011;31096;49.292;8.710;2023-04-06T04:01:43;7.95;;;4.60;;
45358;SDS011;31096;49.292;8.710;2023-04-06T04:06:33;7.83;;;4.67;;
45358;SDS011;31096;49.292;8.710;2023-04-06T04:11:26;9.73;;;4.78;;
45358;SDS011;31096;49.292;8.710;2023-04-06T04:16:17;8.17;;;5.10;;
45358;SDS011;31096;49.292;8.710;2023-04-06T04:21:07;9.80;;;4.97;;
45358;SDS011;31096;49.292;8.710;2023-04-06T04:25:58;10.18;;;4.82;;
45358;SDS011;31096;49.292;8.710;2023-04-06T04:30:49;7.53;;;4.83;;
45358;SDS011;31096;49.292;8.710;2023-04-06T04:35:40;7.57;;;4.35;;
45358;SDS011;31096;49.292;8.710;2023-04-06T04:40:30;7.00;;;4.10;;
45358;SDS011;31096;49.292;8.710;2023-04-06T04:45:21;8.43;;;4.70;;
45358;SDS011;31096;49.292;8.710;2023-04-06T04:50:12;8.13;;;4.25;;
45358;SDS011;31096;49.292;8.710;2023-04-06T04:55:03;8.80;;;4.80;;
45358;SDS011;31096;49.292;8.710;2023-04-06T04:59:54;8.50;;;5.05;;
45358;SDS011;31096;49.292;8.710;2023-04-06T05:04:45;7.03;;;4.07;;
45358;SDS011;31096;49.292;8.710;2023-04-06T05:09:35;7.67;;;4.50;;
45358;SDS011;31096;49.292;8.710;2023-04-06T05:14:27;9.13;;;4.72;;
45358;SDS011;31096;49.292;8.710;2023-04-06T05:19:18;8.37;;;4.63;;
45358;SDS011;31096;49.292;8.710;2023-04-06T05:24:09;9.82;;;4.68;;
45358;SDS011;31096;49.292;8.710;2023-04-06T05:28:59;7.60;;;4.63;;
45358;SDS011;31096;49.292;8.710;2023-04-06T05:33:50;8.50;;;4.85;;
45358;SDS011;31096;49.292;8.710;2023-04-06T05:38:41;8.40;;;5.07;;
45358;SDS011;31096;49.292;8.710;2023-04-06T05:43:32;8.90;;;5.45;;
45358;SDS011;31096;49.292;8.710;2023-04-06T05:48:23;8.00;;;4.95;;
45358;SDS011;31096;49.292;8.710;2023-04-06T05:53:13;9.43;;;4.90;;
45358;SDS011;31096;49.292;8.710;2023-04-06T05:58:04;8.95;;;4.68;;
45358;SDS011;31096;49.292;8.710;2023-04-06T06:02:55;9.60;;;4.97;;
45358;SDS011;31096;49.292;8.710;2023-04-06T06:07:46;9.05;;;5.32;;
45358;SDS011;31096;49.292;8.710;2023-04-06T06:12:36;8.77;;;4.93;;
45358;SDS011;31096;49.292;8.710;2023-04-06T06:17:27;9.07;;;5.37;;
45358;SDS011;31096;49.292;8.710;2023-04-06T06:22:18;9.90;;;5.82;;
45358;SDS011;31096;49.292;8.710;2023-04-06T06:27:09;8.87;;;5.23;;
45358;SDS011;31096;49.292;8.710;2023-04-06T06:32:00;11.05;;;5.32;;
45358;SDS011;31096;49.292;8.710;2023-04-06T06:36:50;10.93;;;5.22;;
45358;SDS011;31096;49.292;8.710;2023-04-06T06:41:41;9.30;;;5.35;;
45358;SDS011;31096;49.292;8.710;2023-04-06T06:46:32;8.73;;;6.00;;
45358;SDS011;31096;49.292;8.710;2023-04-06T06:51:23;9.93;;;6.20;;
45358;SDS011;31096;49.292;8.710;2023-04-06T06:56:13;10.10;;;5.97;;
45358;SDS011;31096;49.292;8.710;2023-04-06T07:01:04;13.13;;;6.90;;
45358;SDS011;31096;49.292;8.710;2023-04-06T07:05:55;10.73;;;7.00;;
45358;SDS011;31096;49.292;8.710;2023-04-06T07:10:46;12.48;;;6.97;;
45358;SDS011;31096;49.292;8.710;2023-04-06T07:15:37;14.77;;;7.70;;
45358;SDS011;31096;49.292;8.710;2023-04-06T07:20:28;12.00;;;7.50;;
45358;SDS011;31096;49.292;8.710;2023-04-06T07:25:19;11.67;;;7.43;;
45358;SDS011;31096;49.292;8.710;2023-04-06T07:30:09;11.88;;;7.40;;
45358;SDS011;31096;49.292;8.710;2023-04-06T07:35:01;13.55;;;8.15;;
45358;SDS011;31096;49.292;8.710;2023-04-06T07:39:53;14.60;;;8.23;;
45358;SDS011;31096;49.292;8.710;2023-04-06T07:44:44;14.23;;;8.13;;
45358;SDS011;31096;49.292;8.710;2023-04-06T07:49:35;14.50;;;8.23;;
45358;SDS011;31096;49.292;8.710;2023-04-06T07:54:26;14.47;;;8.47;;
45358;SDS011;31096;49.292;8.710;2023-04-06T07:59:17;16.08;;;8.65;;
45358;SDS011;31096;49.292;8.710;2023-04-06T08:04:11;13.47;;;7.97;;
45358;SDS011;31096;49.292;8.710;2023-04-06T08:57:05;12.55;;;7.78;;
45358;SDS011;31096;49.292;8.710;2023-04-06T09:01:57;13.30;;;7.97;;
45358;SDS011;31096;49.292;8.710;2023-04-06T09:06:55;12.13;;;8.73;;
45358;SDS011;31096;49.292;8.710;2023-04-06T09:11:47;11.50;;;7.43;;
45358;SDS011;31096;49.292;8.710;2023-04-06T09:16:40;11.85;;;7.57;;
45358;SDS011;31096;49.292;8.710;2023-04-06T09:21:38;13.37;;;7.87;;
45358;SDS011;31096;49.292;8.710;2023-04-06T09:26:30;14.77;;;8.70;;
45358;SDS011;31096;49.292;8.710;2023-04-06T09:31:24;13.43;;;8.25;;
45358;SDS011;31096;49.292;8.710;2023-04-06T09:36:29;13.33;;;7.97;;
45358;SDS011;31096;49.292;8.710;2023-04-06T09:41:39;10.77;;;7.10;;
45358;SDS011;31096;49.292;8.710;2023-04-06T09:46:36;9.23;;;6.13;;
45358;SDS011;31096;49.292;8.710;2023-04-06T09:51:36;9.97;;;6.10;;
45358;SDS011;31096;49.292;8.710;2023-04-06T09:56:41;10.85;;;5.72;;
45358;SDS011;31096;49.292;8.710;2023-04-06T10:01:42;10.07;;;6.15;;
45358;SDS011;31096;49.292;8.710;2023-04-06T10:06:33;9.73;;;5.80;;
45358;SDS011;31096;49.292;8.710;2023-04-06T10:11:26;8.65;;;5.60;;
45358;SDS011;31096;49.292;8.710;2023-04-06T10:16:17;9.27;;;5.80;;
45358;SDS011;31096;49.292;8.710;2023-04-06T10:21:09;9.13;;;6.43;;
45358;SDS011;31096;49.292;8.710;2023-04-06T10:26:02;7.90;;;5.32;;
45358;SDS011;31096;49.292;8.710;2023-04-06T10:30:57;10.60;;;5.90;;
45358;SDS011;31096;49.292;8.710;2023-04-06T10:35:51;9.67;;;5.67;;
45358;SDS011;31096;49.292;8.710;2023-04-06T10:40:42;9.55;;;5.40;;
45358;SDS011;31096;49.292;8.710;2023-04-06T10:45:33;9.30;;;5.75;;
45358;SDS011;31096;49.292;8.710;2023-04-06T10:50:24;8.33;;;4.57;;
45358;SDS011;31096;49.292;8.710;2023-04-06T10:55:15;8.40;;;5.50;;
45358;SDS011;31096;49.292;8.710;2023-04-06T11:00:07;6.37;;;4.30;;
45358;SDS011;31096;49.292;8.710;2023-04-06T11:05:02;6.93;;;4.13;;
45358;SDS011;31096;49.292;8.710;2023-04-06T11:09:53;7.47;;;4.82;;
45358;SDS011;31096;49.292;8.710;2023-04-06T11:14:52;8.83;;;5.33;;
45358;SDS011;31096;49.292;8.710;2023-04-06T11:19:54;9.20;;;5.72;;
45358;SDS011;31096;49.292;8.710;2023-04-06T11:24:46;8.98;;;5.55;;
45358;SDS011;31096;49.292;8.710;2023-04-06T11:29:37;9.10;;;5.23;;
45358;SDS011;31096;49.292;8.710;2023-04-06T11:34:28;8.55;;;5.10;;
45358;SDS011;31096;49.292;8.710;2023-04-06T11:39:21;8.80;;;4.93;;
45358;SDS011;31096;49.292;8.710;2023-04-06T11:44:13;7.47;;;5.00;;
45358;SDS011;31096;49.292;8.710;2023-04-06T11:49:04;9.35;;;5.32;;
45358;SDS011;31096;49.292;8.710;2023-04-06T11:53:55;13.17;;;7.70;;
45358;SDS011;31096;49.292;8.710;2023-04-06T11:58:46;7.97;;;5.55;;
45358;SDS011;31096;49.292;8.710;2023-04-06T12:03:37;8.57;;;5.20;;
45358;SDS011;31096;49.292;8.710;2023-04-06T12:08:28;8.27;;;5.45;;
45358;SDS011;31096;49.292;8.710;2023-04-06T12:13:18;7.10;;;5.30;;
45358;SDS011;31096;49.292;8.710;2023-04-06T12:18:09;7.05;;;4.80;;
45358;SDS011;31096;49.292;8.710;2023-04-06T12:23:00;6.80;;;4.80;;
45358;SDS011;31096;49.292;8.710;2023-04-06T12:27:51;8.93;;;4.90;;
45358;SDS011;31096;49.292;8.710;2023-04-06T12:32:41;8.20;;;5.10;;
45358;SDS011;31096;49.292;8.710;2023-04-06T12:37:32;7.20;;;5.00;;
45358;SDS011;31096;49.292;8.710;2023-04-06T12:42:23;7.75;;;5.20;;
45358;SDS011;31096;49.292;8.710;2023-04-06T12:47:14;7.20;;;4.40;;
45358;SDS011;31096;49.292;8.710;2023-04-06T12:52:04;8.77;;;5.17;;
45358;SDS011;31096;49.292;8.710;2023-04-06T12:56:55;8.77;;;5.37;;
45358;SDS011;31096;49.292;8.710;2023-04-06T13:01:46;9.20;;;5.50;;
45358;SDS011;31096;49.292;8.710;2023-04-06T13:06:37;7.00;;;4.60;;
45358;SDS011;31096;49.292;8.710;2023-04-06T13:11:29;7.50;;;4.90;;
45358;SDS011;31096;49.292;8.710;2023-04-06T13:16:20;7.27;;;4.50;;
45358;SDS011;31096;49.292;8.710;2023-04-06T13:21:13;7.35;;;4.40;;
45358;SDS011;31096;49.292;8.710;2023-04-06T13:26:06;11.63;;;4.73;;
45358;SDS011;31096;49.292;8.710;2023-04-06T13:30:58;6.23;;;3.90;;
45358;SDS011;31096;49.292;8.710;2023-04-06T13:35:53;11.23;;;4.07;;
45358;SDS011;31096;49.292;8.710;2023-04-06T13:40:44;6.38;;;4.18;;
45358;SDS011;31096;49.292;8.710;2023-04-06T13:45:35;6.23;;;4.20;;
45358;SDS011;31096;49.292;8.710;2023-04-06T13:50:26;7.82;;;4.18;;
45358;SDS011;31096;49.292;8.710;2023-04-06T13:55:17;7.63;;;4.85;;
45358;SDS011;31096;49.292;8.710;2023-04-06T14:00:08;7.33;;;4.83;;
45358;SDS011;31096;49.292;8.710;2023-04-06T14:05:01;7.32;;;4.40;;
45358;SDS011;31096;49.292;8.710;2023-04-06T14:09:53;8.47;;;4.17;;
45358;SDS011;31096;49.292;8.710;2023-04-06T14:14:44;7.22;;;4.50;;
45358;SDS011;31096;49.292;8.710;2023-04-06T14:19:34;7.83;;;4.70;;
45358;SDS011;31096;49.292;8.710;2023-04-06T14:24:26;6.32;;;4.15;;
45358;SDS011;31096;49.292;8.710;2023-04-06T14:29:16;8.03;;;4.07;;
45358;SDS011;31096;49.292;8.710;2023-04-06T14:34:07;7.75;;;4.63;;
45358;SDS011;31096;49.292;8.710;2023-04-06T14:38:58;8.73;;;4.83;;
45358;SDS011;31096;49.292;8.710;2023-04-06T14:43:48;7.67;;;4.63;;
45358;SDS011;31096;49.292;8.710;2023-04-06T14:48:39;7.03;;;4.05;;
45358;SDS011;31096;49.292;8.710;2023-04-06T14:53:30;5.97;;;3.83;;
45358;SDS011;31096;49.292;8.710;2023-04-06T14:58:22;6.75;;;4.60;;
45358;SDS011;31096;49.292;8.710;2023-04-06T15:03:14;9.25;;;3.85;;
45358;SDS011;31096;49.292;8.710;2023-04-06T15:08:07;6.80;;;3.77;;
45358;SDS011;31096;49.292;8.710;2023-04-06T15:12:59;7.10;;;3.80;;
45358;SDS011;31096;49.292;8.710;2023-04-06T15:17:50;6.40;;;3.80;;
45358;SDS011;31096;49.292;8.710;2023-04-06T15:22:40;7.30;;;4.10;;
45358;SDS011;31096;49.292;8.710;2023-04-06T15:27:31;7.10;;;3.90;;
45358;SDS011;31096;49.292;8.710;2023-04-06T15:32:22;6.43;;;3.88;;
45358;SDS011;31096;49.292;8.710;2023-04-06T15:37:13;6.43;;;4.20;;
45358;SDS011;31096;49.292;8.710;2023-04-06T15:42:03;7.17;;;4.20;;
45358;SDS011;31096;49.292;8.710;2023-04-06T15:46:54;6.88;;;3.95;;
45358;SDS011;31096;49.292;8.710;2023-04-06T15:51:49;8.13;;;3.83;;
45358;SDS011;31096;49.292;8.710;2023-04-06T15:56:41;7.60;;;4.20;;
45358;SDS011;31096;49.292;8.710;2023-04-06T16:01:32;7.60;;;3.85;;
45358;SDS011;31096;49.292;8.710;2023-04-06T16:06:22;6.33;;;4.03;;
45358;SDS011;31096;49.292;8.710;2023-04-06T16:11:13;7.25;;;4.05;;
45358;SDS011;31096;49.292;8.710;2023-04-06T16:16:04;7.43;;;4.10;;
45358;SDS011;31096;49.292;8.710;2023-04-06T16:20:55;7.57;;;4.25;;
45358;SDS011;31096;49.292;8.710;2023-04-06T16:25:46;7.20;;;4.53;;
45358;SDS011;31096;49.292;8.710;2023-04-06T16:30:37;7.53;;;3.93;;
45358;SDS011;31096;49.292;8.710;2023-04-06T16:35:28;8.48;;;3.83;;
45358;SDS011;31096;49.292;8.710;2023-04-06T16:40:20;7.03;;;3.80;;
45358;SDS011;31096;49.292;8.710;2023-04-06T16:45:11;9.35;;;4.90;;
45358;SDS011;31096;49.292;8.710;2023-04-06T16:50:02;8.20;;;4.55;;
45358;SDS011;31096;49.292;8.710;2023-04-06T16:54:56;6.97;;;3.93;;
45358;SDS011;31096;49.292;8.710;2023-04-06T16:59:47;6.68;;;3.58;;
45358;SDS011;31096;49.292;8.710;2023-04-06T17:04:38;8.27;;;3.73;;
45358;SDS011;31096;49.292;8.710;2023-04-06T17:09:29;7.95;;;3.78;;
45358;SDS011;31096;49.292;8.710;2023-04-06T17:14:22;6.00;;;3.30;;
45358;SDS011;31096;49.292;8.710;2023-04-06T17:19:13;6.05;;;3.15;;
45358;SDS011;31096;49.292;8.710;2023-04-06T17:24:04;5.90;;;2.72;;
45358;SDS011;31096;49.292;8.710;2023-04-06T17:28:55;5.27;;;2.40;;
45358;SDS011;31096;49.292;8.710;2023-04-06T17:33:46;6.68;;;2.58;;
45358;SDS011;31096;49.292;8.710;2023-04-06T17:38:38;5.83;;;2.97;;
45358;SDS011;31096;49.292;8.710;2023-04-06T17:43:32;5.82;;;3.53;;
45358;SDS011;31096;49.292;8.710;2023-04-06T17:48:24;5.63;;;3.03;;
45358;SDS011;31096;49.292;8.710;2023-04-06T17:53:16;5.67;;;3.40;;
45358;SDS011;31096;49.292;8.710;2023-04-06T17:58:09;6.18;;;3.40;;
45358;SDS011;31096;49.292;8.710;2023-04-06T18:03:00;7.03;;;3.40;;
45358;SDS011;31096;49.292;8.710;2023-04-06T18:07:50;6.30;;;3.47;;
45358;SDS011;31096;49.292;8.710;2023-04-06T18:12:41;9.20;;;3.30;;
45358;SDS011;31096;49.292;8.710;2023-04-06T18:17:32;6.43;;;3.60;;
45358;SDS011;31096;49.292;8.710;2023-04-06T18:22:23;6.00;;;3.50;;
45358;SDS011;31096;49.292;8.710;2023-04-06T18:27:14;7.57;;;4.57;;
45358;SDS011;31096;49.292;8.710;2023-04-06T18:32:06;7.10;;;4.03;;
45358;SDS011;31096;49.292;8.710;2023-04-06T18:36:57;7.15;;;4.63;;
45358;SDS011;31096;49.292;8.710;2023-04-06T18:41:50;6.87;;;3.87;;
45358;SDS011;31096;49.292;8.710;2023-04-06T18:46:42;8.13;;;4.32;;
45358;SDS011;31096;49.292;8.710;2023-04-06T18:51:33;8.40;;;4.03;;
45358;SDS011;31096;49.292;8.710;2023-04-06T18:56:24;9.73;;;4.72;;
45358;SDS011;31096;49.292;8.710;2023-04-06T19:01:19;8.50;;;4.73;;
45358;SDS011;31096;49.292;8.710;2023-04-06T19:06:11;7.80;;;4.07;;
45358;SDS011;31096;49.292;8.710;2023-04-06T19:11:05;7.83;;;4.13;;
45358;SDS011;31096;49.292;8.710;2023-04-06T19:16:00;7.13;;;4.10;;
45358;SDS011;31096;49.292;8.710;2023-04-06T19:20:50;6.40;;;3.40;;
45358;SDS011;31096;49.292;8.710;2023-04-06T19:25:43;6.60;;;3.80;;
45358;SDS011;31096;49.292;8.710;2023-04-06T19:30:34;7.90;;;4.30;;
45358;SDS011;31096;49.292;8.710;2023-04-06T19:35:24;6.87;;;4.07;;
45358;SDS011;31096;49.292;8.710;2023-04-06T19:40:15;6.53;;;4.40;;
45358;SDS011;31096;49.292;8.710;2023-04-06T19:45:06;7.77;;;4.10;;
45358;SDS011;31096;49.292;8.710;2023-04-06T19:49:57;7.65;;;4.70;;
45358;SDS011;31096;49.292;8.710;2023-04-06T19:54:48;9.37;;;4.17;;
45358;SDS011;31096;49.292;8.710;2023-04-06T19:59:38;6.40;;;3.70;;
45358;SDS011;31096;49.292;8.710;2023-04-06T20:04:29;7.30;;;4.80;;
45358;SDS011;31096;49.292;8.710;2023-04-06T20:09:20;7.53;;;4.03;;
45358;SDS011;31096;49.292;8.710;2023-04-06T20:14:11;6.82;;;4.35;;
45358;SDS011;31096;49.292;8.710;2023-04-06T20:19:02;6.10;;;3.63;;
45358;SDS011;31096;49.292;8.710;2023-04-06T20:23:53;7.20;;;4.13;;
45358;SDS011;31096;49.292;8.710;2023-04-06T20:28:44;7.83;;;4.93;;
45358;SDS011;31096;49.292;8.710;2023-04-06T20:33:34;6.70;;;3.40;;
45358;SDS011;31096;49.292;8.710;2023-04-06T20:38:26;9.70;;;5.55;;
45358;SDS011;31096;49.292;8.710;2023-04-06T20:43:17;11.75;;;6.78;;
45358;SDS011;31096;49.292;8.710;2023-04-06T20:48:14;12.00;;;6.50;;
45358;SDS011;31096;49.292;8.710;2023-04-06T20:53:05;11.23;;;4.65;;
45358;SDS011;31096;49.292;8.710;2023-04-06T20:57:56;7.60;;;4.53;;
45358;SDS011;31096;49.292;8.710;2023-04-06T21:02:46;6.78;;;4.55;;
45358;SDS011;31096;49.292;8.710;2023-04-06T21:07:37;7.67;;;4.40;;
45358;SDS011;31096;49.292;8.710;2023-04-06T21:12:28;6.97;;;4.33;;
45358;SDS011;31096;49.292;8.710;2023-04-06T21:17:19;7.93;;;4.53;;
45358;SDS011;31096;49.292;8.710;2023-04-06T21:22:10;9.23;;;5.23;;
45358;SDS011;31096;49.292;8.710;2023-04-06T21:27:00;8.02;;;4.93;;
45358;SDS011;31096;49.292;8.710;2023-04-06T21:31:51;8.70;;;5.30;;
45358;SDS011;31096;49.292;8.710;2023-04-06T21:36:44;8.43;;;5.63;;
45358;SDS011;31096;49.292;8.710;2023-04-06T21:41:35;10.60;;;5.33;;
45358;SDS011;31096;49.292;8.710;2023-04-06T21:46:26;9.50;;;5.35;;
45358;SDS011;31096;49.292;8.710;2023-04-06T21:51:17;8.70;;;4.87;;
45358;SDS011;31096;49.292;8.710;2023-04-06T21:56:09;7.50;;;5.05;;
45358;SDS011;31096;49.292;8.710;2023-04-06T22:00:59;9.13;;;4.70;;
45358;SDS011;31096;49.292;8.710;2023-04-06T22:05:50;7.50;;;4.72;;
45358;SDS011;31096;49.292;8.710;2023-04-06T22:10:41;9.65;;;5.28;;
45358;SDS011;31096;49.292;8.710;2023-04-06T22:15:31;8.80;;;5.37;;
45358;SDS011;31096;49.292;8.710;2023-04-06T22:20:23;9.45;;;4.38;;
45358;SDS011;31096;49.292;8.710;2023-04-06T22:25:13;7.93;;;4.63;;
45358;SDS011;31096;49.292;8.710;2023-04-06T22:30:04;8.67;;;4.87;;
45358;SDS011;31096;49.292;8.710;2023-04-06T22:34:56;7.97;;;4.80;;
45358;SDS011;31096;49.292;8.710;2023-04-06T22:39:46;9.37;;;5.00;;
45358;SDS011;31096;49.292;8.710;2023-04-06T22:44:37;8.48;;;5.43;;
45358;SDS011;31096;49.292;8.710;2023-04-06T22:49:28;12.18;;;7.53;;
45358;SDS011;31096;49.292;8.710;2023-04-06T22:54:18;10.23;;;6.00;;
45358;SDS011;31096;49.292;8.710;2023-04-06T22:59:09;9.43;;;6.03;;
45358;SDS011;31096;49.292;8.710;2023-04-06T23:04:00;9.85;;;5.97;;
45358;SDS011;31096;49.292;8.710;2023-04-06T23:08:51;10.30;;;6.27;;
45358;SDS011;31096;49.292;8.710;2023-04-06T23:13:42;8.20;;;4.80;;
45358;SDS011;31096;49.292;8.710;2023-04-06T23:18:33;10.00;;;5.60;;
45358;SDS011;31096;49.292;8.710;2023-04-06T23:23:24;10.35;;;6.05;;
45358;SDS011;31096;49.292;8.710;2023-04-06T23:28:14;9.10;;;5.20;;
45358;SDS011;31096;49.292;8.710;2023-04-06T23:33:05;8.20;;;4.53;;
45358;SDS011;31096;49.292;8.710;2023-04-06T23:37:56;8.75;;;5.35;;
45358;SDS011;31096;49.292;8.710;2023-04-06T23:42:48;9.00;;;5.03;;
45358;SDS011;31096;49.292;8.710;2023-04-06T23:47:38;9.47;;;5.50;;
45358;SDS011;31096;49.292;8.710;2023-04-06T23:52:29;9.02;;;5.40;;
45358;SDS011;31096;49.292;8.710;2023-04-06T23:57:20;9.47;;;4.97;;
